Time;durP1;ratioP1;P1;durP2;ratioP2;P2;SDS_P1;SDS_P2;PMS_P1;PMS_P2;Temp;Humidity;BMP_temperature;BMP_pressure;BME280_temperature;BME280_humidity;BME280_pressure;Samples;Min_cycle;Max_cycle;Signal;HPM_P1;HPM_P2
2023/06/04 00:00:09;;;;;;;3.90;2.00;;;;;;;12.17;100.00;101668.00;5009904;28;20714;-73
2023/06/04 00:02:35;;;;;;;4.00;1.90;;;;;;;12.19;100.00;101671.19;5012462;28;20076;-74
2023/06/04 00:05:02;;;;;;;3.60;1.85;;;;;;;12.11;100.00;101661.25;5022592;28;20393;-72
2023/06/04 00:07:29;;;;;;;6.93;2.15;;;;;;;12.12;100.00;101669.22;5013296;28;20132;-73
2023/06/04 00:09:56;;;;;;;7.22;2.17;;;;;;;12.11;100.00;101664.84;5007576;28;20042;-74
2023/06/04 00:12:22;;;;;;;6.50;2.55;;;;;;;12.10;100.00;101671.63;5005914;28;20085;-73
2023/06/04 00:14:49;;;;;;;6.65;2.10;;;;;;;12.07;100.00;101661.28;5010559;28;20057;-75
2023/06/04 00:17:16;;;;;;;6.13;1.95;;;;;;;12.07;100.00;101661.28;5012477;28;20140;-73
2023/06/04 00:19:42;;;;;;;9.60;3.22;;;;;;;12.03;100.00;101654.13;5012058;28;20157;-73
2023/06/04 00:22:09;;;;;;;5.00;1.95;;;;;;;12.05;100.00;101655.31;5017772;28;20504;-73
2023/06/04 00:24:38;;;;;;;4.15;1.88;;;;;;;12.01;100.00;101648.97;5006361;28;20092;-73
2023/06/04 00:27:07;;;;;;;6.65;1.90;;;;;;;12.04;100.00;101655.72;5013088;28;20136;-73
2023/06/04 00:29:33;;;;;;;8.45;2.28;;;;;;;12.06;100.00;101656.09;5008929;28;20038;-73
2023/06/04 00:32:00;;;;;;;4.68;1.90;;;;;;;12.06;100.00;101654.09;5009130;28;20053;-75
2023/06/04 00:34:27;;;;;;;8.85;2.13;;;;;;;12.05;100.00;101652.53;5015068;28;20423;-71
2023/06/04 00:36:53;;;;;;;5.88;1.80;;;;;;;12.10;100.00;101659.66;5019533;28;20883;-73
2023/06/04 00:39:20;;;;;;;8.30;1.85;;;;;;;12.07;100.00;101666.03;5021168;28;20141;-73
2023/06/04 00:41:47;;;;;;;3.78;1.65;;;;;;;12.02;100.00;101663.69;5006518;28;20085;-72
2023/06/04 00:44:13;;;;;;;5.97;1.92;;;;;;;12.03;100.00;101662.50;5007432;28;20066;-73
2023/06/04 00:46:40;;;;;;;8.50;2.20;;;;;;;12.04;100.00;101662.09;5006316;28;20480;-71
2023/06/04 00:49:06;;;;;;;4.78;1.80;;;;;;;12.01;100.00;101662.09;5007851;28;20524;-74
2023/06/04 00:51:33;;;;;;;5.30;1.85;;;;;;;11.98;100.00;101654.53;5005951;28;20089;-72
2023/06/04 00:54:08;;;;;;;5.60;2.55;;;;;;;11.98;100.00;101655.34;5007201;28;20089;-72
2023/06/04 00:56:37;;;;;;;4.88;2.08;;;;;;;11.91;100.00;101658.16;5006915;28;20517;-73
2023/06/04 00:59:05;;;;;;;4.53;1.77;;;;;;;11.85;100.00;101656.97;5015132;28;20107;-70
2023/06/04 01:02:06;;;;;;;6.20;2.10;;;;;;;11.82;100.00;101648.66;5015120;28;20054;-72
2023/06/04 01:04:44;;;;;;;7.18;2.13;;;;;;;11.84;100.00;101652.59;5007497;28;20088;-73
2023/06/04 01:07:13;;;;;;;5.13;2.17;;;;;;;11.84;100.00;101641.47;5016074;28;20132;-72
2023/06/04 01:09:40;;;;;;;7.82;2.30;;;;;;;11.85;100.00;101656.19;5011555;28;20088;-71
2023/06/04 01:12:07;;;;;;;4.75;1.90;;;;;;;11.82;100.00;101657.78;5006787;28;20082;-73
2023/06/04 01:14:34;;;;;;;9.73;2.22;;;;;;;11.82;100.00;101655.00;5006778;28;20081;-73
2023/06/04 01:17:40;;;;;;;5.80;2.05;;;;;;;11.74;100.00;101659.00;5014471;28;20100;-70
2023/06/04 01:20:08;;;;;;;;;;;;;;;11.80;100.00;101662.16;5006718;28;20646;-70
2023/06/04 01:22:43;;;;;;;8.75;1.98;;;;;;;11.77;100.00;101655.44;5013252;28;19921;-74
2023/06/04 01:25:26;;;;;;;;;;;;;;;11.77;100.00;101662.97;5015040;28;20132;-72
2023/06/04 01:27:56;;;;;;;6.82;2.20;;;;;;;11.76;100.00;101659.41;5007066;28;19996;-72
2023/06/04 01:30:26;;;;;;;6.38;1.90;;;;;;;11.73;100.00;101656.63;5011775;28;20422;-71
2023/06/04 01:32:54;;;;;;;4.50;2.10;;;;;;;11.73;100.00;101657.44;5025393;28;20140;-74
2023/06/04 01:35:22;;;;;;;7.30;2.13;;;;;;;11.72;100.00;101655.81;5014258;28;20049;-73
2023/06/04 01:37:51;;;;;;;3.75;1.85;;;;;;;11.66;100.00;101667.78;5010301;28;20103;-71
2023/06/04 01:40:18;;;;;;;5.50;2.08;;;;;;;11.66;100.00;101662.22;5008830;28;20108;-75
2023/06/04 01:42:45;;;;;;;4.47;2.10;;;;;;;11.63;100.00;101663.81;5019134;28;20116;-73
2023/06/04 01:45:12;;;;;;;7.07;2.60;;;;;;;11.66;100.00;101665.00;5030307;28;20085;-73
2023/06/04 01:47:38;;;;;;;6.80;2.60;;;;;;;11.59;100.00;101663.03;5010025;28;20542;-74
2023/06/04 01:50:09;;;;;;;6.25;2.60;;;;;;;11.59;100.00;101657.47;5020942;28;20046;-71
2023/06/04 01:52:40;;;;;;;6.65;2.42;;;;;;;11.51;100.00;101664.25;5015089;28;20049;-70
2023/06/04 01:55:09;;;;;;;5.72;2.45;;;;;;;11.52;100.00;101657.47;5018485;28;20475;-72
2023/06/04 01:57:36;;;;;;;6.60;2.45;;;;;;;11.54;100.00;101654.28;5010479;28;20104;-74
2023/06/04 02:00:05;;;;;;;3.42;2.00;;;;;;;11.52;100.00;101657.47;5016279;28;20085;-75
2023/06/04 02:02:31;;;;;;;6.72;2.47;;;;;;;11.50;100.00;101659.88;5022258;28;20049;-71
2023/06/04 02:04:58;;;;;;;8.77;2.58;;;;;;;11.47;100.00;101655.09;5013457;28;20062;-72
2023/06/04 02:07:25;;;;;;;6.70;2.05;;;;;;;11.38;100.00;101654.72;5015600;28;20085;-71
2023/06/04 02:09:52;;;;;;;4.75;2.20;;;;;;;11.39;100.00;101656.31;5010698;28;20046;-72
2023/06/04 02:12:18;;;;;;;7.40;2.20;;;;;;;11.39;100.00;101658.31;5025149;28;20840;-74
2023/06/04 02:14:46;;;;;;;8.40;2.95;;;;;;;11.34;100.00;101655.94;5012559;28;20554;-73
2023/06/04 02:17:13;;;;;;;4.30;2.20;;;;;;;11.32;100.00;101661.91;5017714;28;20405;-73
2023/06/04 02:19:44;;;;;;;5.88;1.92;;;;;;;11.27;100.00;101661.50;5013298;28;20503;-69
2023/06/04 02:22:12;;;;;;;9.02;2.20;;;;;;;11.26;100.00;101665.47;5027222;28;20099;-71
2023/06/04 02:24:42;;;;;;;7.38;2.33;;;;;;;11.22;100.00;101665.50;5014213;28;20127;-73
2023/06/04 02:27:09;;;;;;;8.15;2.90;;;;;;;11.17;100.00;101657.50;5010260;28;20066;-73
2023/06/04 02:29:36;;;;;;;6.38;2.60;;;;;;;11.17;100.00;101667.84;5016658;28;20076;-73
2023/06/04 02:32:03;;;;;;;4.60;2.10;;;;;;;11.13;100.00;101678.19;5008405;28;20136;-72
2023/06/04 02:34:30;;;;;;;5.32;2.38;;;;;;;11.06;100.00;101673.41;5021202;28;20487;-71
2023/06/04 02:36:58;;;;;;;6.88;2.80;;;;;;;11.02;100.00;101669.84;5011097;28;20050;-73
2023/06/04 02:39:25;;;;;;;10.15;2.75;;;;;;;10.96;100.00;101685.34;5014777;28;20053;-73
2023/06/04 02:41:51;;;;;;;4.90;2.33;;;;;;;10.91;100.00;101676.59;5013150;28;20100;-71
2023/06/04 02:44:18;;;;;;;8.35;2.92;;;;;;;10.86;100.00;101679.75;5016617;28;20144;-73
2023/06/04 02:46:44;;;;;;;4.95;2.30;;;;;;;10.81;100.00;101678.19;5015261;28;20140;-73
2023/06/04 02:49:30;;;;;;;7.18;2.58;;;;;;;10.80;100.00;101676.59;5012342;28;20092;-72
2023/06/04 02:51:56;;;;;;;4.28;2.13;;;;;;;10.75;100.00;101673.41;5023214;28;20076;-72
2023/06/04 02:54:25;;;;;;;8.70;2.60;;;;;;;10.67;100.00;101669.81;5009545;28;20505;-72
2023/06/04 02:56:53;;;;;;;8.38;2.80;;;;;;;10.66;100.00;101676.56;5017225;28;20057;-72
2023/06/04 02:59:20;;;;;;;5.32;2.85;;;;;;;10.59;100.00;101676.56;5009628;28;20056;-71
2023/06/04 03:01:46;;;;;;;8.05;2.80;;;;;;;10.58;100.00;101679.72;5016988;28;20046;-72
2023/06/04 03:04:15;;;;;;;4.13;1.92;;;;;;;10.56;100.00;101676.56;5001143;28;20050;-71
2023/06/04 03:06:46;;;;;;;5.65;2.55;;;;;;;10.51;100.00;101686.09;5008515;28;20048;-73
2023/06/04 03:09:13;;;;;;;7.82;2.10;;;;;;;10.45;100.00;101679.31;5017219;28;20054;-72
2023/06/04 03:11:44;;;;;;;5.90;2.35;;;;;;;10.40;100.00;101685.25;5017306;28;20137;-73
2023/06/04 03:14:11;;;;;;;4.85;2.38;;;;;;;10.38;100.00;101687.63;5015650;28;20073;-73
2023/06/04 03:16:39;;;;;;;6.90;2.28;;;;;;;10.35;100.00;101688.41;5007754;28;20083;-72
2023/06/04 03:19:06;;;;;;;8.90;2.60;;;;;;;10.31;100.00;101684.84;5015108;28;20803;-72
2023/06/04 03:21:32;;;;;;;7.95;2.40;;;;;;;10.27;100.00;101689.59;5019925;28;20156;-73
2023/06/04 03:23:59;;;;;;;3.83;2.00;;;;;;;10.22;100.00;101684.41;5012137;28;20061;-72
2023/06/04 03:26:27;;;;;;;5.97;2.30;;;;;;;10.19;100.00;101682.41;5020409;28;20045;-72
2023/06/04 03:28:54;;;;;;;8.57;2.20;;;;;;;10.19;100.00;101681.63;5009796;28;20160;-72
2023/06/04 03:31:21;;;;;;;6.47;2.13;;;;;;;10.08;100.00;101678.78;5012767;28;20531;-71
2023/06/04 03:33:47;;;;;;;6.43;2.38;;;;;;;10.09;100.00;101682.38;5011454;28;20683;-73
2023/06/04 03:36:16;;;;;;;4.60;2.65;;;;;;;10.04;100.00;101684.31;5012804;28;20073;-71
2023/06/04 03:38:45;;;;;;;7.30;2.53;;;;;;;10.02;100.00;101692.28;5016760;28;20076;-72
2023/06/04 03:41:14;;;;;;;5.50;2.38;;;;;;;10.01;100.00;101687.09;5015641;28;20152;-72
2023/06/04 03:43:42;;;;;;;5.50;2.65;;;;;;;9.99;100.00;101683.91;5008804;28;20076;-72
2023/06/04 03:46:09;;;;;;;9.00;2.83;;;;;;;9.95;100.00;101681.09;5007443;28;20089;-73
2023/06/04 03:48:35;;;;;;;8.35;2.67;;;;;;;9.92;100.00;101686.63;5008087;28;20050;-71
2023/06/04 03:51:02;;;;;;;6.38;2.30;;;;;;;9.87;100.00;101687.78;5008034;28;20570;-71
2023/06/04 03:53:28;;;;;;;8.48;2.53;;;;;;;9.83;100.00;101684.19;5029151;28;20063;-73
2023/06/04 03:55:55;;;;;;;10.70;2.75;;;;;;;9.80;100.00;101690.53;5018690;28;20057;-72
2023/06/04 03:58:24;;;;;;;6.88;2.85;;;;;;;9.80;100.00;101692.53;5013226;28;20099;-73
2023/06/04 04:00:51;;;;;;;12.60;3.17;;;;;;;9.83;100.00;101694.53;5018545;28;20045;-71
2023/06/04 04:03:18;;;;;;;6.75;2.85;;;;;;;9.80;100.00;101684.97;5008534;28;20131;-72
2023/06/04 04:05:47;;;;;;;8.15;2.90;;;;;;;9.79;100.00;101683.41;5015910;28;20116;-72
2023/06/04 04:08:16;;;;;;;7.60;2.75;;;;;;;9.80;100.00;101689.75;4999777;28;20136;-73
2023/06/04 04:10:42;;;;;;;5.60;2.63;;;;;;;9.79;100.00;101694.50;5015214;28;20843;-71
2023/06/04 04:13:09;;;;;;;5.55;2.63;;;;;;;9.82;100.00;101696.50;5007664;28;20057;-73
2023/06/04 04:15:35;;;;;;;8.73;2.42;;;;;;;9.81;100.00;101692.16;5014211;28;20133;-72
2023/06/04 04:18:03;;;;;;;7.97;3.03;;;;;;;9.77;100.00;101691.34;5010599;28;20574;-73
2023/06/04 04:20:29;;;;;;;9.02;2.88;;;;;;;9.79;100.00;101688.13;5007131;28;20049;-73
2023/06/04 04:22:56;;;;;;;8.85;2.88;;;;;;;9.81;100.00;101697.69;5011127;28;20865;-74
2023/06/04 04:25:24;;;;;;;6.45;2.80;;;;;;;9.81;100.00;101694.94;5007890;28;20472;-75
2023/06/04 04:27:50;;;;;;;5.80;2.60;;;;;;;9.80;100.00;101696.09;5007264;28;20061;-74
2023/06/04 04:30:17;;;;;;;10.63;3.33;;;;;;;9.82;100.00;101690.94;5011431;28;20069;-75
2023/06/04 04:32:48;;;;;;;9.82;2.80;;;;;;;9.85;100.00;101697.69;5016082;28;20142;-74
2023/06/04 04:35:18;;;;;;;7.18;2.65;;;;;;;9.85;100.00;101694.94;4999935;28;20081;-74
2023/06/04 04:37:45;;;;;;;5.13;2.47;;;;;;;9.91;100.00;101694.19;5012898;28;20424;-74
2023/06/04 04:40:12;;;;;;;6.10;2.30;;;;;;;9.96;100.00;101693.78;5012741;28;20446;-73
2023/06/04 04:42:38;;;;;;;5.90;2.80;;;;;;;10.02;100.00;101696.25;5007697;28;20146;-76
2023/06/04 04:45:06;;;;;;;8.05;3.13;;;;;;;10.06;100.00;101697.81;5014501;28;20054;-74
2023/06/04 04:47:38;;;;;;;8.00;2.80;;;;;;;10.15;100.00;101697.47;5007177;28;20084;-71
2023/06/04 04:50:05;;;;;;;6.65;2.80;;;;;;;10.23;100.00;101699.09;5015539;28;20053;-73
2023/06/04 04:52:32;;;;;;;6.22;2.80;;;;;;;10.31;100.00;101695.97;5019134;28;20135;-73
2023/06/04 04:55:04;;;;;;;10.60;3.50;;;;;;;10.36;100.00;101698.34;5010395;28;20587;-71
2023/06/04 04:57:31;;;;;;;10.60;3.45;;;;;;;10.45;100.00;101696.00;5012814;28;20057;-76
2023/06/04 04:59:57;;;;;;;9.27;3.35;;;;;;;10.53;100.00;101694.03;5006698;28;20149;-74
2023/06/04 05:02:24;;;;;;;10.52;3.10;;;;;;;10.64;100.00;101700.41;5007547;28;20112;-73
2023/06/04 05:04:53;;;;;;;9.32;3.15;;;;;;;10.70;100.00;101696.06;5015159;28;20134;-74
2023/06/04 05:07:21;;;;;;;8.48;3.35;;;;;;;10.84;100.00;101696.06;5016167;28;20293;-74
2023/06/04 05:09:47;;;;;;;7.13;2.92;;;;;;;10.94;100.00;101696.06;5014163;28;20133;-71
2023/06/04 05:12:14;;;;;;;8.02;2.80;;;;;;;11.00;100.00;101693.72;5006574;28;20073;-75
2023/06/04 05:14:41;;;;;;;8.93;3.00;;;;;;;11.13;100.00;101706.00;5021468;28;20436;-70
2023/06/04 05:17:09;;;;;;;10.80;3.53;;;;;;;11.21;100.00;101702.81;5022510;28;20049;-73
2023/06/04 05:19:42;;;;;;;8.35;3.20;;;;;;;11.29;100.00;101698.09;5019188;28;20549;-74
2023/06/04 05:22:11;;;;;;;;;;;;;;;11.42;100.00;101705.66;5022875;28;20451;-71
2023/06/04 05:24:37;;;;;;;6.20;2.90;;;;;;;11.49;100.00;101702.84;5015107;28;20004;-73
2023/06/04 05:27:04;;;;;;;6.97;3.20;;;;;;;11.57;100.00;101701.63;5017446;28;20495;-73
2023/06/04 05:29:30;;;;;;;6.35;2.67;;;;;;;11.65;100.00;101710.78;5025270;28;20104;-72
2023/06/04 05:31:57;;;;;;;5.18;2.30;;;;;;;11.72;100.00;101705.97;5008853;28;20743;-71
2023/06/04 05:34:26;;;;;;;10.55;2.47;;;;;;;11.82;100.00;101704.38;5024295;28;20045;-73
2023/06/04 05:36:53;;;;;;;9.18;2.88;;;;;;;11.91;100.00;101708.31;5011746;28;20145;-72
2023/06/04 05:39:20;;;;;;;7.22;2.80;;;;;;;11.96;100.00;101693.94;5012458;28;20731;-71
2023/06/04 05:41:46;;;;;;;6.82;3.45;;;;;;;12.09;100.00;101697.88;5020323;28;20100;-73
2023/06/04 05:44:13;;;;;;;9.23;2.80;;;;;;;12.18;100.00;101701.03;5002328;28;20078;-72
2023/06/04 05:46:40;;;;;;;9.02;2.60;;;;;;;12.25;100.00;101703.81;5017709;28;20573;-70
2023/06/04 05:49:06;;;;;;;7.03;2.63;;;;;;;12.31;100.00;101702.19;5032863;28;20096;-72
2023/06/04 05:51:33;;;;;;;6.82;2.55;;;;;;;12.38;100.00;101704.16;5025038;28;20145;-72
2023/06/04 05:53:59;;;;;;;7.07;2.63;;;;;;;12.45;100.00;101710.50;5017902;28;20564;-72
2023/06/04 05:56:26;;;;;;;8.73;2.47;;;;;;;12.52;100.00;101710.47;5017334;28;20088;-72
2023/06/04 05:58:55;;;;;;;6.97;2.53;;;;;;;12.59;100.00;101711.63;5017304;28;20130;-71
2023/06/04 06:01:25;;;;;;;10.10;3.22;;;;;;;12.67;100.00;101718.75;5010365;28;20129;-75
2023/06/04 06:03:51;;;;;;;6.25;2.70;;;;;;;12.74;100.00;101722.28;5018237;28;20082;-73
2023/06/04 06:06:19;;;;;;;6.80;2.53;;;;;;;12.81;100.00;101722.25;5017871;28;20049;-72
2023/06/04 06:08:46;;;;;;;7.00;3.03;;;;;;;12.85;100.00;101719.41;5008884;28;20085;-72
2023/06/04 06:11:13;;;;;;;7.03;2.22;;;;;;;12.90;100.00;101719.81;5009461;28;20570;-73
2023/06/04 06:13:40;;;;;;;8.57;2.58;;;;;;;12.94;100.00;101719.75;5019757;28;20049;-72
2023/06/04 06:16:06;;;;;;;6.57;2.60;;;;;;;12.97;100.00;101724.53;5010591;28;20058;-72
2023/06/04 06:18:33;;;;;;;7.47;2.92;;;;;;;13.02;100.00;101726.88;5010594;28;20050;-74
2023/06/04 06:20:59;;;;;;;9.00;3.17;;;;;;;13.04;100.00;101719.69;5008455;28;20054;-74
2023/06/04 06:23:28;;;;;;;7.40;2.47;;;;;;;13.09;100.00;101727.63;5008534;28;20493;-72
2023/06/04 06:25:55;;;;;;;6.88;2.50;;;;;;;13.15;100.00;101736.34;5016765;28;20104;-72
2023/06/04 06:28:21;;;;;;;8.48;2.60;;;;;;;13.20;100.00;101724.75;5016801;28;20507;-74
2023/06/04 06:30:48;;;;;;;5.60;2.20;;;;;;;13.26;100.00;101723.13;5031786;28;20124;-73
2023/06/04 06:33:21;;;;;;;5.45;2.40;;;;;;;13.36;100.00;101731.38;5018222;28;20081;-74
2023/06/04 06:35:48;;;;;;;7.60;2.75;;;;;;;13.37;100.00;101726.59;5017570;28;20141;-77
2023/06/04 06:38:14;;;;;;;6.50;2.78;;;;;;;13.46;100.00;101730.53;5005946;28;20128;-72
2023/06/04 06:40:44;;;;;;;7.22;2.83;;;;;;;13.53;100.00;101735.25;5013589;28;20081;-75
2023/06/04 06:43:10;;;;;;;6.30;2.70;;;;;;;13.57;100.00;101741.63;5016982;28;20085;-74
2023/06/04 06:45:37;;;;;;;7.45;3.08;;;;;;;13.64;100.00;101741.56;5017218;28;20111;-74
2023/06/04 06:48:04;;;;;;;4.50;2.50;;;;;;;13.66;100.00;101744.72;5009866;28;20060;-74
2023/06/04 06:50:31;;;;;;;7.45;2.72;;;;;;;13.73;100.00;101744.63;5008541;28;20104;-73
2023/06/04 06:52:57;;;;;;;6.50;2.65;;;;;;;13.81;100.00;101735.75;5016178;28;20512;-74
2023/06/04 06:55:24;;;;;;;7.00;2.53;;;;;;;13.87;100.00;101736.91;5010302;28;20099;-74
2023/06/04 06:57:50;;;;;;;12.93;3.67;;;;;;;14.01;100.00;101741.56;5009354;28;20822;-74
2023/06/04 07:00:18;;;;;;;4.70;2.63;;;;;;;14.09;100.00;101749.44;5005844;28;20097;-75
2023/06/04 07:02:45;;;;;;;5.05;2.30;;;;;;;14.19;100.00;101747.72;5008927;28;20490;-74
2023/06/04 07:05:14;;;;;;;4.75;2.38;;;;;;;14.27;100.00;101752.81;5012534;28;20318;-73
2023/06/04 07:07:40;;;;;;;5.97;2.47;;;;;;;14.37;100.00;101742.69;5008335;28;20527;-75
2023/06/04 07:10:09;;;;;;;6.43;2.70;;;;;;;14.42;100.00;101756.28;5008361;28;20054;-74
2023/06/04 07:12:35;;;;;;;8.10;2.60;;;;;;;14.48;100.00;101746.19;5007180;28;20049;-74
2023/06/04 07:15:02;;;;;;;8.25;2.88;;;;;;;14.56;100.00;101754.06;5008576;28;20514;-73
2023/06/04 07:17:29;;;;;;;5.85;2.53;;;;;;;14.66;100.00;101755.91;5015540;28;20046;-73
2023/06/04 07:19:55;;;;;;;11.43;4.00;;;;;;;14.76;100.00;101754.22;5003857;28;20046;-73
2023/06/04 07:22:22;;;;;;;6.40;2.72;;;;;;;14.85;100.00;101757.25;5010473;28;20128;-75
2023/06/04 07:24:48;;;;;;;4.93;2.28;;;;;;;14.96;100.00;101755.91;5024643;28;20150;-74
2023/06/04 07:27:15;;;;;;;6.78;2.78;;;;;;;15.06;100.00;101754.16;5010823;28;20077;-75
2023/06/04 07:29:48;;;;;;;10.90;3.28;;;;;;;15.18;100.00;101755.56;5011331;28;20099;-74
2023/06/04 07:32:15;;;;;;;5.57;2.58;;;;;;;15.29;100.00;101754.16;5016473;28;20033;-71
2023/06/04 07:34:42;;;;;;;5.60;2.42;;;;;;;15.42;100.00;101746.78;5015930;28;20125;-71
2023/06/04 07:37:09;;;;;;;8.93;2.63;;;;;;;15.52;100.00;101751.41;5019347;28;20427;-71
2023/06/04 07:39:36;;;;;;;7.95;2.38;;;;;;;15.57;100.00;101750.94;5021776;28;20054;-71
2023/06/04 07:42:05;;;;;;;6.05;2.28;;;;;;;15.68;100.00;101754.34;5010062;28;20798;-68
2023/06/04 07:44:32;;;;;;;7.15;2.53;;;;;;;15.75;100.00;101754.22;5007874;28;20435;-71
2023/06/04 07:46:58;;;;;;;7.15;2.40;;;;;;;15.85;100.00;101756.03;5009202;28;20515;-71
2023/06/04 07:49:25;;;;;;;6.30;2.30;;;;;;;15.92;100.00;101755.91;5008007;28;20057;-72
2023/06/04 07:51:51;;;;;;;5.70;2.40;;;;;;;16.03;100.00;101762.09;5007314;28;20108;-71
2023/06/04 07:54:18;;;;;;;10.20;3.00;;;;;;;16.13;100.00;101747.06;5012589;28;20112;-74
2023/06/04 07:56:44;;;;;;;9.57;2.35;;;;;;;16.19;100.00;101764.97;5006409;28;20053;-71
2023/06/04 07:59:11;;;;;;;8.82;2.50;;;;;;;16.27;100.00;101755.22;5009811;28;20128;-74
2023/06/04 08:01:37;;;;;;;5.28;2.78;;;;;;;16.34;100.00;101749.47;5020635;28;20152;-74
2023/06/04 08:04:04;;;;;;;6.78;2.78;;;;;;;16.45;100.00;101755.66;5007312;28;20065;-77
2023/06/04 08:06:31;;;;;;;7.00;2.90;;;;;;;16.59;100.00;101755.34;5013057;28;20045;-73
2023/06/04 08:08:57;;;;;;;8.20;3.35;;;;;;;16.71;100.00;101757.47;5008795;28;20054;-77
2023/06/04 08:11:24;;;;;;;8.73;2.72;;;;;;;16.84;100.00;101752.78;5027563;28;20041;-75
2023/06/04 08:13:51;;;;;;;5.82;2.50;;;;;;;16.94;100.00;101759.38;5010879;28;20591;-74
2023/06/04 08:16:17;;;;;;;6.50;2.83;;;;;;;17.05;100.00;101755.09;5018778;28;20084;-71
2023/06/04 08:18:44;;;;;;;6.25;2.30;;;;;;;17.19;100.00;101751.19;5015561;28;20073;-69
2023/06/04 08:21:11;;;;;;;6.35;2.30;;;;;;;17.29;100.00;101750.91;5023548;28;20476;-70
2023/06/04 08:23:38;;;;;;;8.02;2.72;;;;;;;17.32;100.00;101750.03;5004458;28;20548;-66
2023/06/04 08:26:06;;;;;;;7.82;2.50;;;;;;;17.45;100.00;101747.31;5023886;28;20146;-70
2023/06/04 08:28:34;;;;;;;5.55;2.55;;;;;;;17.63;100.00;101761.72;5009100;28;20627;-70
2023/06/04 08:31:01;;;;;;;6.03;2.88;;;;;;;17.72;100.00;101752.66;5008843;28;20073;-72
2023/06/04 08:33:27;;;;;;;8.15;2.78;;;;;;;17.76;100.00;101764.59;5015437;28;20810;-70
2023/06/04 08:35:54;;;;;;;7.90;3.15;;;;;;;17.83;100.00;101770.03;5015852;28;20164;-71
2023/06/04 08:38:21;;;;;;;5.72;2.83;;;;;;;17.89;97.21;101768.25;5021909;28;20065;-67
2023/06/04 08:40:52;;;;;;;8.13;3.30;;;;;;;17.90;97.75;101765.00;5023221;28;20049;-72
2023/06/04 08:43:19;;;;;;;8.27;3.10;;;;;;;18.04;98.09;101758.22;5000080;28;20100;-68
2023/06/04 08:45:49;;;;;;;10.65;3.17;;;;;;;18.14;97.12;101762.78;5000928;28;20137;-69
2023/06/04 08:48:20;;;;;;;7.93;3.30;;;;;;;18.25;94.04;101769.69;4997343;28;20116;-67
2023/06/04 08:50:47;;;;;;;6.53;3.13;;;;;;;18.32;93.49;101757.41;5008441;28;20519;-70
2023/06/04 08:53:15;;;;;;;10.25;3.15;;;;;;;18.41;95.17;101758.38;5013714;28;20077;-70
2023/06/04 08:55:42;;;;;;;8.00;2.95;;;;;;;18.59;93.83;101766.25;5004845;28;20515;-70
2023/06/04 08:58:10;;;;;;;7.53;3.10;;;;;;;18.70;90.97;101758.31;5008266;28;20108;-71
2023/06/04 09:00:37;;;;;;;8.80;3.47;;;;;;;18.81;89.45;101765.22;5009231;28;20132;-72
2023/06/04 09:03:04;;;;;;;10.20;3.08;;;;;;;18.92;90.01;101762.84;5005039;28;20074;-71
2023/06/04 09:05:30;;;;;;;7.70;3.47;;;;;;;19.05;90.88;101760.84;5001807;28;20045;-70
2023/06/04 09:08:01;;;;;;;9.25;3.35;;;;;;;19.10;84.58;101751.00;5007342;28;20116;-71
2023/06/04 09:10:29;;;;;;;8.57;2.80;;;;;;;19.17;82.98;101756.44;5007957;28;20042;-69
2023/06/04 09:13:01;;;;;;;10.20;3.45;;;;;;;19.31;84.00;101758.78;5008406;28;20141;-69
2023/06/04 09:15:27;;;;;;;5.82;2.90;;;;;;;19.41;80.60;101761.25;5025993;28;20041;-71
2023/06/04 09:17:54;;;;;;;11.75;3.22;;;;;;;19.47;77.14;101755.81;5010007;28;20436;-72
2023/06/04 09:20:22;;;;;;;6.95;2.72;;;;;;;19.57;78.85;101766.78;5006439;28;20563;-68
2023/06/04 09:22:51;;;;;;;9.43;3.17;;;;;;;19.61;79.01;101767.44;5005751;28;20048;-69
2023/06/04 09:25:25;;;;;;;7.50;3.10;;;;;;;19.63;76.45;101764.16;5013273;28;20555;-70
2023/06/04 09:27:53;;;;;;;9.90;4.03;;;;;;;19.69;74.80;101765.16;5007411;28;20046;-66
2023/06/04 09:30:19;;;;;;;4.22;2.72;;;;;;;19.75;74.78;101763.34;5011040;28;20471;-68
2023/06/04 09:32:46;;;;;;;7.10;3.05;;;;;;;19.83;74.36;101769.53;5009112;28;20489;-70
2023/06/04 09:35:19;;;;;;;7.90;3.00;;;;;;;19.88;72.79;101769.72;5010158;28;20330;-69
2023/06/04 09:37:55;;;;;;;9.60;3.25;;;;;;;19.89;65.40;101765.69;5009550;28;20046;-69
2023/06/04 09:40:23;;;;;;;12.75;3.78;;;;;;;19.90;64.87;101760.81;5021810;28;20081;-74
2023/06/04 09:42:54;;;;;;;7.15;2.80;;;;;;;19.93;65.13;101763.50;5006710;28;20080;-70
2023/06/04 09:45:28;;;;;;;6.65;3.08;;;;;;;20.07;63.63;101767.84;5006769;28;20062;-71
2023/06/04 09:47:55;;;;;;;7.78;3.17;;;;;;;20.14;64.37;101759.13;5018935;28;20092;-73
2023/06/04 09:50:26;;;;;;;8.75;3.13;;;;;;;20.12;62.73;101755.97;5014412;28;20049;-73
2023/06/04 09:52:54;;;;;;;6.53;2.67;;;;;;;20.25;64.08;101763.16;5011505;28;20053;-74
2023/06/04 09:55:22;;;;;;;5.70;3.10;;;;;;;20.36;64.65;101763.56;5020236;28;20050;-74
2023/06/04 09:57:50;;;;;;;7.05;3.10;;;;;;;20.39;61.24;101753.38;5012398;28;20073;-75
2023/06/04 10:00:18;;;;;;;8.68;2.90;;;;;;;20.54;63.20;101760.84;5012226;28;20049;-75
2023/06/04 10:02:46;;;;;;;5.00;2.80;;;;;;;20.63;61.48;101754.47;5010632;28;20425;-73
2023/06/04 10:05:14;;;;;;;9.35;3.28;;;;;;;20.76;61.49;101758.78;5010563;28;20479;-73
2023/06/04 10:07:44;;;;;;;7.75;3.28;;;;;;;20.84;60.60;101754.44;5008297;28;20042;-71
2023/06/04 10:10:16;;;;;;;9.77;3.38;;;;;;;20.88;60.41;101757.91;5017813;28;20626;-72
2023/06/04 10:12:44;;;;;;;5.25;2.80;;;;;;;20.87;61.08;101753.50;5016931;28;20126;-72
2023/06/04 10:15:13;;;;;;;7.55;2.60;;;;;;;20.90;58.17;101758.25;5010330;28;20050;-70
2023/06/04 10:17:40;;;;;;;8.02;3.00;;;;;;;21.03;59.61;101758.16;5010608;28;20045;-72
2023/06/04 10:20:08;;;;;;;9.70;3.00;;;;;;;21.12;56.79;101741.22;5011889;28;20135;-74
2023/06/04 10:22:35;;;;;;;10.85;3.28;;;;;;;21.18;57.22;101745.81;5013269;28;20057;-73
2023/06/04 10:25:05;;;;;;;6.20;2.42;;;;;;;21.36;55.20;101750.72;5008073;28;20079;-72
2023/06/04 10:27:32;;;;;;;5.80;2.80;;;;;;;21.45;52.21;101748.72;5007911;28;20049;-70
2023/06/04 10:29:59;;;;;;;6.95;2.60;;;;;;;21.42;52.74;101746.81;5009474;28;20049;-69
2023/06/04 10:32:30;;;;;;;7.50;3.10;;;;;;;21.53;51.25;101747.16;5010020;28;20132;-72
2023/06/04 10:34:57;;;;;;;7.47;3.03;;;;;;;21.64;50.91;101753.16;5002090;28;20050;-70
2023/06/04 10:37:29;;;;;;;11.27;2.75;;;;;;;21.63;49.43;101737.44;5000930;28;20085;-71
2023/06/04 10:39:57;;;;;;;4.80;2.35;;;;;;;21.77;49.67;101747.38;5012262;28;20053;-72
2023/06/04 10:42:25;;;;;;;7.30;2.58;;;;;;;21.90;50.05;101745.16;5006145;28;20061;-69
2023/06/04 10:44:54;;;;;;;5.10;2.72;;;;;;;22.05;49.51;101749.72;5008309;28;20046;-70
2023/06/04 10:47:30;;;;;;;7.72;3.63;;;;;;;22.07;47.36;101740.75;5007738;28;20054;-71
2023/06/04 10:50:09;;;;;;;7.13;2.90;;;;;;;22.08;47.46;101748.00;5012000;28;20056;-71
2023/06/04 10:52:37;;;;;;;8.63;3.30;;;;;;;22.18;48.60;101752.41;5005211;28;20414;-72
2023/06/04 10:55:04;;;;;;;9.05;3.33;;;;;;;22.26;49.29;101745.16;5010720;28;20512;-73
2023/06/04 10:57:31;;;;;;;7.97;2.92;;;;;;;22.31;48.49;101740.94;5010031;28;20077;-71
2023/06/04 11:00:00;;;;;;;6.97;3.05;;;;;;;22.34;48.21;101735.09;5007754;28;20152;-71
2023/06/04 11:02:27;;;;;;;9.65;3.30;;;;;;;22.46;46.89;101734.13;5007358;28;20053;-75
2023/06/04 11:05:01;;;;;;;8.68;2.70;;;;;;;22.43;44.04;101725.78;5009178;28;20093;-73
2023/06/04 11:07:28;;;;;;;6.70;2.53;;;;;;;22.61;45.79;101726.53;5003311;28;20657;-72
2023/06/04 11:09:55;;;;;;;4.28;2.65;;;;;;;22.89;46.77;101738.56;5002972;28;20054;-74
2023/06/04 11:12:22;;;;;;;7.55;3.00;;;;;;;22.99;45.91;101738.09;5021285;28;21051;-71
2023/06/04 11:14:55;;;;;;;6.60;3.38;;;;;;;23.03;44.97;101737.91;5006815;28;20132;-72
2023/06/04 11:17:22;;;;;;;6.05;3.00;;;;;;;23.19;45.59;101737.50;5005020;28;20059;-67
2023/06/04 11:19:49;;;;;;;7.00;3.47;;;;;;;23.37;44.61;101731.72;5014284;28;20057;-71
2023/06/04 11:22:15;;;;;;;6.95;3.00;;;;;;;23.43;43.35;101724.91;5000614;28;20128;-73